Time;durP1;ratioP1;P1;durP2;ratioP2;P2;SDS_P1;SDS_P2;PMS_P1;PMS_P2;Temp;Humidity;BMP_temperature;BMP_pressure;BME280_temperature;BME280_humidity;BME280_pressure;Samples;Min_cycle;Max_cycle;Signal;HPM_P1;HPM_P2
2023/05/01 00:02:21;;;;;;;8.60;3.90;;;;;;;5.88;66.16;101267.84;107743;1253;72644;-69
2023/05/01 00:04:47;;;;;;;6.40;3.40;;;;;;;5.83;66.23;101263.68;108205;1254;61350;-69
2023/05/01 00:07:15;;;;;;;8.20;4.20;;;;;;;5.80;66.40;101260.25;108034;1254;61657;-70
2023/05/01 00:09:41;;;;;;;7.20;3.90;;;;;;;5.77;66.58;101261.39;107990;1255;74720;-68
2023/05/01 00:12:10;;;;;;;8.90;4.30;;;;;;;5.74;66.60;101259.06;107898;1254;70136;-68
2023/05/01 00:14:37;;;;;;;7.60;4.00;;;;;;;5.69;66.84;101255.86;108092;1254;72992;-67
2023/05/01 00:17:03;;;;;;;12.30;4.60;;;;;;;5.67;67.02;101251.37;107569;1252;61830;-70
2023/05/01 00:19:31;;;;;;;10.60;5.30;;;;;;;5.64;67.28;101251.44;107969;1257;59959;-69
2023/05/01 00:21:58;;;;;;;10.70;5.50;;;;;;;5.61;67.62;101246.42;107955;1254;73461;-69
2023/05/01 00:24:24;;;;;;;11.30;4.70;;;;;;;5.59;67.84;101244.36;107936;1257;68751;-69
2023/05/01 00:26:51;;;;;;;8.40;4.10;;;;;;;5.56;67.83;101241.98;107820;1257;71342;-71
2023/05/01 00:29:18;;;;;;;9.50;4.90;;;;;;;5.53;67.98;101240.60;107881;1254;61413;-69
2023/05/01 00:31:46;;;;;;;9.70;4.60;;;;;;;5.51;68.05;101238.85;108164;1254;61183;-69
2023/05/01 00:34:12;;;;;;;11.70;4.60;;;;;;;5.49;68.14;101236.90;107425;1257;828276;-69
2023/05/01 00:36:39;;;;;;;8.60;4.60;;;;;;;5.46;68.16;101232.20;107778;1253;61145;-69
2023/05/01 00:39:08;;;;;;;13.00;4.60;;;;;;;5.44;68.53;101229.64;107515;1255;71167;-69
2023/05/01 00:41:36;;;;;;;10.10;4.60;;;;;;;5.41;68.47;101222.48;107765;1254;61164;-69
2023/05/01 00:44:05;;;;;;;9.20;4.50;;;;;;;5.39;68.66;101222.13;107962;1255;61237;-71
2023/05/01 00:46:32;;;;;;;8.50;4.40;;;;;;;5.37;68.76;101217.80;107494;1254;73591;-69
2023/05/01 00:49:00;;;;;;;8.30;4.50;;;;;;;5.34;68.93;101219.44;108244;1254;71077;-69
2023/05/01 00:51:28;;;;;;;10.80;4.40;;;;;;;5.31;69.02;101214.88;107876;1254;70780;-68
2023/05/01 00:53:55;;;;;;;9.30;4.40;;;;;;;5.30;69.22;101215.89;108299;1254;61812;-70
2023/05/01 00:56:22;;;;;;;7.90;4.20;;;;;;;5.29;69.46;101216.64;107866;1254;61116;-69
2023/05/01 00:58:52;;;;;;;9.50;4.50;;;;;;;5.28;69.68;101212.30;107809;1254;73453;-68
2023/05/01 01:01:20;;;;;;;9.10;4.50;;;;;;;5.28;69.99;101211.23;108150;1254;70511;-69
2023/05/01 01:03:47;;;;;;;12.10;4.70;;;;;;;5.28;70.24;101205.97;108178;1254;73007;-70
2023/05/01 01:06:34;;;;;;;7.30;4.10;;;;;;;5.28;70.32;101203.86;107522;1253;62222;-68
2023/05/01 01:09:12;;;;;;;10.80;4.50;;;;;;;5.29;70.44;101205.05;107791;1254;61160;-69
2023/05/01 01:11:52;;;;;;;7.60;3.90;;;;;;;5.29;70.64;101205.23;107695;1252;75422;-69
2023/05/01 01:14:25;;;;;;;8.70;4.30;;;;;;;5.30;70.98;101198.67;107619;1254;70910;-69
2023/05/01 01:16:58;;;;;;;8.40;4.30;;;;;;;5.29;71.11;101198.20;107934;1253;73910;-70
2023/05/01 01:20:13;;;;;;;9.00;4.50;;;;;;;5.28;71.12;101197.56;107923;1253;61276;-69
2023/05/01 01:22:45;;;;;;;9.80;4.50;;;;;;;5.28;71.05;101189.38;107542;1254;61166;-69
2023/05/01 01:25:36;;;;;;;9.00;4.10;;;;;;;5.27;71.17;101187.30;107986;1254;74728;-71
2023/05/01 01:28:40;;;;;;;8.00;4.10;;;;;;;5.27;71.42;101186.65;108104;1254;69910;-70
2023/05/01 01:31:19;;;;;;;9.50;5.00;;;;;;;5.26;71.41;101187.61;108179;1254;72411;-68
2023/05/01 01:34:03;;;;;;;12.50;4.80;;;;;;;5.25;71.41;101181.52;107830;1253;61260;-70
2023/05/01 01:37:14;;;;;;;8.60;4.50;;;;;;;5.26;71.95;101185.98;108273;1254;61285;-69
2023/05/01 01:40:06;;;;;;;11.40;4.60;;;;;;;5.24;71.73;101183.52;107636;1253;73991;-69
2023/05/01 01:42:57;;;;;;;12.00;4.80;;;;;;;5.23;71.75;101178.72;107953;1252;71032;-69
2023/05/01 01:45:36;;;;;;;9.50;4.80;;;;;;;5.23;71.62;101175.42;107741;1254;71432;-69
2023/05/01 01:48:06;;;;;;;10.60;4.70;;;;;;;5.22;71.44;101175.27;107930;1254;60038;-69
2023/05/01 01:50:36;;;;;;;9.90;4.90;;;;;;;5.22;71.36;101167.55;107740;1253;61266;-68
2023/05/01 01:53:06;;;;;;;8.40;4.50;;;;;;;5.21;71.37;101165.07;108350;1254;74699;-68
2023/05/01 01:55:34;;;;;;;10.20;5.20;;;;;;;5.18;71.41;101162.62;107995;1253;70430;-69
2023/05/01 01:58:03;;;;;;;10.70;5.20;;;;;;;5.14;71.41;101159.52;107431;1252;71688;-68
2023/05/01 02:00:33;;;;;;;9.40;4.60;;;;;;;5.09;71.85;101159.07;107790;1254;61436;-69
2023/05/01 02:03:00;;;;;;;11.50;5.30;;;;;;;5.03;72.08;101154.27;107621;1254;61371;-68
2023/05/01 02:05:28;;;;;;;12.00;5.10;;;;;;;4.99;72.29;101151.64;108053;1256;74697;-69
2023/05/01 02:07:56;;;;;;;9.40;5.10;;;;;;;4.97;72.24;101149.33;107888;1254;70044;-69
2023/05/01 02:10:24;;;;;;;12.50;5.40;;;;;;;4.97;72.58;101144.98;107959;1254;72476;-68
2023/05/01 02:12:53;;;;;;;12.70;5.40;;;;;;;4.95;72.44;101148.27;108345;1254;61175;-67
2023/05/01 02:15:21;;;;;;;11.60;5.40;;;;;;;4.92;72.54;101147.81;107776;1254;60231;-69
2023/05/01 02:17:50;;;;;;;11.10;5.10;;;;;;;4.89;72.77;101139.48;107915;1254;74420;-69
2023/05/01 02:20:18;;;;;;;11.20;5.60;;;;;;;4.87;73.10;101137.22;107436;1254;71120;-72
2023/05/01 02:22:46;;;;;;;9.50;5.30;;;;;;;4.84;73.10;101131.11;107748;1253;71280;-68
2023/05/01 02:25:15;;;;;;;10.00;5.40;;;;;;;4.81;73.21;101128.02;108299;1254;61296;-67
2023/05/01 02:28:06;;;;;;;9.80;5.40;;;;;;;4.80;73.53;101124.80;108062;1254;61426;-69
2023/05/01 02:30:32;;;;;;;11.50;5.50;;;;;;;4.78;73.73;101116.73;107592;1254;73480;-69
2023/05/01 02:32:59;;;;;;;9.10;5.40;;;;;;;4.78;73.87;101112.89;107662;1254;70992;-69
2023/05/01 02:35:26;;;;;;;10.30;5.20;;;;;;;4.77;73.99;101107.02;108381;1253;73271;-69
2023/05/01 02:37:53;;;;;;;7.80;5.00;;;;;;;4.75;74.13;101104.54;108466;1253;59994;-70
2023/05/01 02:40:20;;;;;;;12.60;5.50;;;;;;;4.71;74.34;101102.20;108308;1254;59117;-70
2023/05/01 02:42:50;;;;;;;12.40;5.80;;;;;;;4.68;74.18;101095.79;108282;1253;74414;-68
2023/05/01 02:45:19;;;;;;;10.70;5.70;;;;;;;4.64;74.05;101087.21;108451;1254;71341;-69
2023/05/01 02:47:50;;;;;;;11.80;5.50;;;;;;;4.62;74.08;101086.57;108389;1253;71446;-69
2023/05/01 02:50:19;;;;;;;10.20;5.60;;;;;;;4.59;74.15;101087.34;107665;1253;61262;-69
2023/05/01 02:52:46;;;;;;;9.90;5.30;;;;;;;4.56;74.23;101080.02;108086;1253;61199;-69
2023/05/01 02:55:14;;;;;;;11.60;5.80;;;;;;;4.53;74.28;101075.67;108524;1253;73799;-69
2023/05/01 02:57:40;;;;;;;11.30;5.70;;;;;;;4.53;74.32;101075.92;107849;1253;71214;-68
2023/05/01 03:00:08;;;;;;;11.70;5.80;;;;;;;4.50;74.38;101075.06;108654;1253;73926;-68
2023/05/01 03:02:35;;;;;;;10.60;5.50;;;;;;;4.48;74.59;101072.20;108432;1253;61274;-69
2023/05/01 03:05:02;;;;;;;11.90;6.20;;;;;;;4.46;74.83;101068.89;108412;1257;59454;-69
2023/05/01 03:07:34;;;;;;;13.40;5.80;;;;;;;4.43;75.02;101067.00;108287;1253;74705;-69
2023/05/01 03:10:06;;;;;;;10.20;6.20;;;;;;;4.41;74.95;101065.11;108511;1253;69314;-70
2023/05/01 03:12:33;;;;;;;11.90;5.70;;;;;;;4.38;75.65;101065.02;108209;1253;71759;-69
2023/05/01 03:14:59;;;;;;;11.40;5.90;;;;;;;4.34;75.53;101061.86;108081;1254;59817;-68
2023/05/01 03:17:28;;;;;;;10.20;6.40;;;;;;;4.30;75.64;101060.05;108711;1253;59947;-69
2023/05/01 03:19:54;;;;;;;8.90;5.80;;;;;;;4.27;75.97;101056.45;108363;1253;73414;-69
2023/05/01 03:22:22;;;;;;;10.60;5.70;;;;;;;4.24;76.14;101058.10;108590;1253;70035;-69
2023/05/01 03:24:49;;;;;;;12.30;5.80;;;;;;;4.22;75.95;101054.23;109101;1253;72890;-69
2023/05/01 03:27:16;;;;;;;10.90;5.60;;;;;;;4.21;76.06;101059.59;108671;1253;61835;-69
2023/05/01 03:29:42;;;;;;;11.50;6.10;;;;;;;4.22;75.88;101057.34;108225;1253;60336;-68
2023/05/01 03:32:10;;;;;;;9.70;5.70;;;;;;;4.23;75.97;101051.70;108756;1253;73603;-70
2023/05/01 03:34:37;;;;;;;10.10;5.80;;;;;;;4.23;76.11;101048.88;108035;1254;70932;-69
2023/05/01 03:37:03;;;;;;;11.30;5.50;;;;;;;4.23;75.78;101043.30;107686;1252;72502;-69
2023/05/01 03:39:30;;;;;;;10.20;5.80;;;;;;;4.22;75.88;101038.84;107811;1253;61346;-70
2023/05/01 03:41:57;;;;;;;12.40;6.10;;;;;;;4.21;76.06;101036.08;107499;1253;61116;-69
2023/05/01 03:44:24;;;;;;;10.20;6.10;;;;;;;4.19;76.20;101039.45;107988;1254;73337;-69
2023/05/01 03:46:51;;;;;;;12.00;5.90;;;;;;;4.17;76.08;101034.52;108243;1253;70349;-69
2023/05/01 03:49:18;;;;;;;11.70;6.00;;;;;;;4.16;76.29;101032.48;108315;1252;72430;-71
2023/05/01 03:51:45;;;;;;;12.20;6.20;;;;;;;4.17;76.55;101028.09;108031;1253;61065;-68
2023/05/01 03:54:11;;;;;;;10.90;5.80;;;;;;;4.18;76.73;101030.11;107803;1253;61275;-69
2023/05/01 03:56:38;;;;;;;10.30;5.90;;;;;;;4.18;76.70;101026.38;108265;1254;74816;-70
2023/05/01 03:59:05;;;;;;;11.80;6.10;;;;;;;4.18;76.60;101022.67;107555;1253;59389;-72
2023/05/01 04:01:34;;;;;;;11.00;6.10;;;;;;;4.20;76.84;101020.43;107902;1253;72713;-68
2023/05/01 04:04:01;;;;;;;9.80;5.70;;;;;;;4.22;76.83;101014.71;108329;1252;61342;-70
2023/05/01 04:06:28;;;;;;;10.60;5.70;;;;;;;4.23;76.94;101012.87;108253;1253;59184;-70
2023/05/01 04:08:55;;;;;;;9.90;5.90;;;;;;;4.24;76.68;101014.29;108023;1257;74691;-69
2023/05/01 04:11:21;;;;;;;10.70;5.80;;;;;;;4.25;76.73;101013.16;107754;1253;61254;-69
2023/05/01 04:13:48;;;;;;;11.80;5.70;;;;;;;4.28;76.83;101014.19;108396;1252;73511;-69
2023/05/01 04:16:15;;;;;;;10.60;5.80;;;;;;;4.30;76.47;101008.91;108012;1253;59675;-71
2023/05/01 04:18:42;;;;;;;12.40;5.70;;;;;;;4.32;76.68;101007.19;108133;1253;59341;-68
2023/05/01 04:21:10;;;;;;;11.60;5.70;;;;;;;4.35;76.43;101008.21;108347;1252;74762;-68
2023/05/01 04:23:37;;;;;;;10.70;5.90;;;;;;;4.37;76.29;101006.06;108001;1253;70997;-69
2023/05/01 04:26:04;;;;;;;9.50;5.20;;;;;;;4.42;76.23;101008.85;107881;1253;71740;-69
2023/05/01 04:28:31;;;;;;;9.80;5.30;;;;;;;4.44;75.98;101003.42;107979;1254;61237;-69
2023/05/01 04:30:57;;;;;;;9.10;5.60;;;;;;;4.47;76.35;101002.83;108037;1252;61397;-69
2023/05/01 04:33:24;;;;;;;10.20;5.70;;;;;;;4.49;76.06;100995.83;107950;1253;73320;-69
2023/05/01 04:35:51;;;;;;;12.30;5.80;;;;;;;4.52;76.05;100997.38;108362;1253;70977;-67
2023/05/01 04:38:18;;;;;;;12.30;5.80;;;;;;;4.55;76.24;101000.27;108246;1253;70872;-68
2023/05/01 04:40:45;;;;;;;11.10;5.80;;;;;;;4.59;76.08;100996.79;108096;1254;60962;-69
2023/05/01 04:43:12;;;;;;;10.50;5.20;;;;;;;4.65;75.89;100995.86;108276;1253;61132;-69
2023/05/01 04:45:38;;;;;;;12.40;5.70;;;;;;;4.73;75.91;100995.91;107555;1253;75472;-68
2023/05/01 04:48:05;;;;;;;12.90;5.90;;;;;;;4.81;75.79;100995.21;107808;1252;70505;-68
2023/05/01 04:50:32;;;;;;;12.00;5.70;;;;;;;4.89;75.51;100993.34;108063;1254;73915;-68
2023/05/01 04:52:59;;;;;;;9.80;5.60;;;;;;;4.98;75.58;100992.58;108233;1253;61809;-69
2023/05/01 04:55:26;;;;;;;12.30;5.60;;;;;;;5.04;74.96;100996.07;108093;1253;59353;-68
2023/05/01 04:57:56;;;;;;;10.40;5.60;;;;;;;5.08;74.86;100995.02;108260;1253;74283;-69
2023/05/01 05:00:23;;;;;;;9.60;5.20;;;;;;;5.13;74.76;100994.83;107978;1254;70127;-68
2023/05/01 05:02:49;;;;;;;10.30;5.40;;;;;;;5.17;74.77;100997.56;107773;1253;73158;-68
2023/05/01 05:05:16;;;;;;;9.20;5.60;;;;;;;5.24;74.56;100996.48;107556;1254;61269;-68
2023/05/01 05:07:43;;;;;;;9.30;5.40;;;;;;;5.30;74.45;100994.89;107833;1256;61134;-69
2023/05/01 05:10:10;;;;;;;11.60;6.00;;;;;;;5.36;74.33;100996.87;108271;1253;61208;-69
2023/05/01 05:12:37;;;;;;;12.20;5.70;;;;;;;5.41;74.04;100997.09;108188;1253;69988;-70
2023/05/01 05:15:04;;;;;;;10.20;5.70;;;;;;;5.49;74.17;100993.97;108081;1253;71199;-70
2023/05/01 05:17:31;;;;;;;10.90;5.50;;;;;;;5.60;74.00;100995.75;107797;1253;61779;-68
2023/05/01 05:19:57;;;;;;;10.20;5.70;;;;;;;5.73;74.09;100989.71;107844;1253;61303;-69
2023/05/01 05:22:24;;;;;;;10.30;5.30;;;;;;;5.86;73.65;100994.52;107688;1253;74464;-69
2023/05/01 05:24:54;;;;;;;9.40;5.20;;;;;;;5.97;73.37;100993.83;108241;1252;72272;-68
2023/05/01 05:27:21;;;;;;;10.80;5.80;;;;;;;6.04;73.04;100991.52;108564;1253;71203;-67
2023/05/01 05:29:49;;;;;;;11.10;5.50;;;;;;;6.13;73.03;100992.52;108061;1253;59621;-69
2023/05/01 05:32:15;;;;;;;11.60;5.50;;;;;;;6.20;72.83;100993.61;107863;1253;61665;-69
2023/05/01 05:34:42;;;;;;;9.40;5.30;;;;;;;6.28;72.68;100991.30;108176;1254;74668;-69
2023/05/01 05:37:09;;;;;;;10.40;5.40;;;;;;;6.38;72.77;100984.29;107938;1253;61244;-69
2023/05/01 05:39:36;;;;;;;12.90;5.50;;;;;;;6.50;72.76;100980.90;108039;1253;72350;-69
2023/05/01 05:42:03;;;;;;;11.10;5.40;;;;;;;6.60;72.47;100979.11;108163;1253;61445;-68
2023/05/01 05:44:31;;;;;;;12.40;5.70;;;;;;;6.69;73.02;100982.44;108305;1253;61384;-69
2023/05/01 05:46:58;;;;;;;10.70;6.00;;;;;;;6.82;72.94;100980.17;108223;1252;74713;-67
2023/05/01 05:49:24;;;;;;;10.90;5.40;;;;;;;7.01;72.62;100979.33;107674;1253;70122;-71
2023/05/01 05:51:51;;;;;;;12.30;5.80;;;;;;;7.19;72.06;100977.09;107782;1253;72674;-69
2023/05/01 05:54:18;;;;;;;9.70;5.70;;;;;;;7.37;71.68;100979.65;108043;1254;61196;-69
2023/05/01 05:56:44;;;;;;;9.30;5.40;;;;;;;7.50;71.34;100977.31;107889;1253;61216;-68
2023/05/01 05:59:11;;;;;;;9.30;5.80;;;;;;;7.57;70.31;100976.61;108243;1253;73177;-68
2023/05/01 06:01:39;;;;;;;11.00;5.70;;;;;;;7.63;70.24;100975.67;108240;1253;59597;-67
2023/05/01 06:04:05;;;;;;;10.50;5.30;;;;;;;7.72;70.04;100975.86;108013;1253;70634;-69
2023/05/01 06:06:33;;;;;;;10.00;5.50;;;;;;;7.89;70.53;100975.95;108151;1252;61128;-70
2023/05/01 06:09:00;;;;;;;9.70;5.40;;;;;;;8.11;70.37;100976.45;107801;1256;60233;-68
2023/05/01 06:11:27;;;;;;;9.50;5.10;;;;;;;8.32;69.74;100973.38;107612;1253;74567;-69
2023/05/01 06:13:54;;;;;;;9.40;4.90;;;;;;;8.47;69.26;100970.02;107677;1253;69929;-69
2023/05/01 06:16:20;;;;;;;10.10;5.30;;;;;;;8.62;68.49;100966.98;108284;1253;72845;-69
2023/05/01 06:18:47;;;;;;;9.20;4.80;;;;;;;8.75;67.66;100966.36;108339;1254;61307;-69
2023/05/01 06:21:14;;;;;;;11.20;5.30;;;;;;;8.84;66.69;100966.33;108267;1253;61737;-68
2023/05/01 06:23:41;;;;;;;9.90;5.20;;;;;;;8.94;66.12;100958.79;108017;1253;73425;-67
2023/05/01 06:26:07;;;;;;;9.50;5.00;;;;;;;9.08;66.05;100961.41;109216;1253;71149;-68
2023/05/01 06:28:34;;;;;;;8.10;4.50;;;;;;;9.26;65.68;100963.43;109244;1253;71182;-68
2023/05/01 06:31:00;;;;;;;10.60;5.10;;;;;;;9.39;65.12;100963.48;107940;1253;61272;-68
2023/05/01 06:33:27;;;;;;;9.50;4.80;;;;;;;9.58;65.02;100962.21;108683;1252;59289;-68
2023/05/01 06:35:54;;;;;;;7.50;4.40;;;;;;;9.76;64.28;100956.40;108024;1252;59132;-68
2023/05/01 06:38:21;;;;;;;8.40;4.30;;;;;;;9.94;63.92;100950.42;107825;1253;70092;-68
2023/05/01 06:40:49;;;;;;;10.80;4.70;;;;;;;10.18;63.61;100951.39;107782;1254;72446;-68
2023/05/01 06:43:16;;;;;;;8.80;4.60;;;;;;;10.33;62.20;100948.43;107996;1253;61531;-68
2023/05/01 06:45:42;;;;;;;8.90;4.60;;;;;;;10.41;62.47;100949.62;108177;1253;62213;-67
2023/05/01 06:48:09;;;;;;;8.60;4.90;;;;;;;10.57;62.71;100944.39;107664;1253;61147;-68
2023/05/01 06:50:35;;;;;;;9.20;4.90;;;;;;;10.78;62.77;100939.06;107745;1256;61343;-67
2023/05/01 06:53:03;;;;;;;10.70;4.70;;;;;;;10.97;62.28;100939.41;108515;1254;70459;-68
2023/05/01 06:55:30;;;;;;;9.10;4.80;;;;;;;11.13;61.09;100936.75;108499;1253;61170;-68
2023/05/01 06:57:59;;;;;;;9.20;4.60;;;;;;;11.22;60.81;100935.85;107981;1253;59795;-69
2023/05/01 07:00:36;;;;;;;9.50;4.30;;;;;;;11.38;60.52;100934.21;107833;1253;73273;-67
2023/05/01 07:03:03;;;;;;;8.50;4.50;;;;;;;11.56;60.38;100925.37;107896;1253;71361;-68
2023/05/01 07:05:30;;;;;;;7.90;4.20;;;;;;;11.71;59.79;100923.79;107849;1253;71532;-67
2023/05/01 07:08:00;;;;;;;7.00;4.10;;;;;;;11.78;58.98;100924.23;107817;1252;62270;-67
2023/05/01 07:10:29;;;;;;;8.50;4.20;;;;;;;11.81;58.81;100923.80;108107;1253;61237;-67
2023/05/01 07:12:55;;;;;;;11.40;4.30;;;;;;;11.83;58.08;100924.29;108316;1253;74425;-67
2023/05/01 07:15:22;;;;;;;8.60;4.30;;;;;;;11.87;57.77;100922.98;107908;1253;61369;-69
2023/05/01 07:17:51;;;;;;;9.80;4.10;;;;;;;11.91;57.42;100922.17;107894;1252;72559;-72
2023/05/01 07:20:18;;;;;;;7.30;4.10;;;;;;;11.93;57.40;100917.05;108142;1252;59292;-70
2023/05/01 07:22:45;;;;;;;7.10;4.20;;;;;;;11.97;58.07;100917.56;107795;1254;60176;-71
2023/05/01 07:25:12;;;;;;;8.40;4.30;;;;;;;12.03;57.88;100915.16;107891;1253;75876;-72
2023/05/01 07:27:39;;;;;;;8.60;4.20;;;;;;;12.10;57.66;100909.76;108070;1253;71269;-72
2023/05/01 07:30:06;;;;;;;6.90;4.10;;;;;;;12.24;57.79;100905.43;108180;1253;72375;-72
2023/05/01 07:32:33;;;;;;;7.50;4.10;;;;;;;12.40;57.71;100905.45;107818;1253;61312;-72
2023/05/01 07:35:00;;;;;;;9.90;4.10;;;;;;;12.54;57.66;100901.65;107936;1253;59198;-72
2023/05/01 07:37:27;;;;;;;8.80;4.50;;;;;;;12.67;57.32;100901.80;107906;1253;73763;-73
2023/05/01 07:39:55;;;;;;;7.10;3.90;;;;;;;12.77;56.24;100895.98;107692;1254;70435;-72
2023/05/01 07:42:22;;;;;;;7.00;3.80;;;;;;;12.90;56.28;100897.09;107850;1253;72373;-71
2023/05/01 07:44:50;;;;;;;7.90;4.00;;;;;;;13.04;55.65;100900.51;108024;1253;59519;-72
2023/05/01 07:47:17;;;;;;;6.80;3.70;;;;;;;13.21;55.45;100900.63;108061;1253;62252;-71
2023/05/01 07:49:43;;;;;;;8.20;3.70;;;;;;;13.38;54.76;100897.48;108028;1253;73526;-73
2023/05/01 07:52:10;;;;;;;8.40;3.40;;;;;;;13.53;54.41;100895.27;107607;1253;70859;-72
2023/05/01 07:54:37;;;;;;;9.20;3.60;;;;;;;13.62;53.62;100890.39;107738;1254;72276;-72
2023/05/01 07:57:05;;;;;;;7.00;3.50;;;;;;;13.71;53.22;100888.72;107843;1253;59747;-72
2023/05/01 07:59:31;;;;;;;8.10;3.60;;;;;;;13.83;53.01;100890.71;107810;1253;60097;-73
2023/05/01 08:01:58;;;;;;;8.50;4.20;;;;;;;13.97;51.63;100887.75;107823;1253;73443;-72
2023/05/01 08:04:26;;;;;;;5.10;3.30;;;;;;;14.01;51.05;100885.98;107811;1253;71821;-72
2023/05/01 08:06:53;;;;;;;6.80;3.10;;;;;;;14.11;51.49;100883.11;108050;1253;71373;-72
2023/05/01 08:09:20;;;;;;;6.10;3.60;;;;;;;14.23;51.35;100880.08;107677;1253;61218;-72
2023/05/01 08:11:47;;;;;;;5.00;3.40;;;;;;;14.33;51.25;100878.59;107488;1256;61233;-73
2023/05/01 08:14:16;;;;;;;8.70;3.90;;;;;;;14.38;50.33;100875.99;107625;1253;73945;-73
2023/05/01 08:16:43;;;;;;;6.90;3.40;;;;;;;14.53;50.94;100873.34;108431;1253;69579;-73
2023/05/01 08:19:10;;;;;;;7.30;3.50;;;;;;;14.71;50.57;100870.83;108425;1253;72506;-72
2023/05/01 08:21:36;;;;;;;7.40;3.90;;;;;;;14.90;49.90;100868.38;108104;1253;60808;-73
2023/05/01 08:24:03;;;;;;;7.80;3.20;;;;;;;15.02;49.29;100866.41;108187;1253;61152;-73
2023/05/01 08:26:30;;;;;;;5.90;3.00;;;;;;;15.16;49.12;100865.09;107611;1253;73211;-73
2023/05/01 08:28:56;;;;;;;5.00;2.80;;;;;;;15.27;48.50;100863.20;108939;1253;71325;-72
2023/05/01 08:31:24;;;;;;;5.40;3.00;;;;;;;15.37;47.88;100861.94;107760;1253;61430;-71
2023/05/01 08:33:50;;;;;;;5.00;2.90;;;;;;;15.49;47.70;100858.72;108432;1252;61240;-72
2023/05/01 08:36:17;;;;;;;6.30;2.90;;;;;;;15.60;47.03;100865.52;107906;1253;61277;-74
2023/05/01 08:38:46;;;;;;;7.10;2.70;;;;;;;15.64;46.11;100862.44;108636;1252;72821;-72
2023/05/01 08:41:22;;;;;;;5.80;2.90;;;;;;;15.75;46.34;100862.60;108828;1253;71380;-73
2023/05/01 08:43:49;;;;;;;5.40;2.70;;;;;;;15.85;46.03;100859.77;108725;1253;71485;-72
2023/05/01 08:46:28;;;;;;;6.40;3.20;;;;;;;15.91;45.03;100862.69;108262;1252;61097;-74
2023/05/01 08:48:56;;;;;;;6.60;2.90;;;;;;;15.88;45.01;100856.60;107822;1253;60405;-73
2023/05/01 08:51:24;;;;;;;6.00;2.60;;;;;;;16.01;45.46;100851.50;108090;1253;73205;-72
2023/05/01 08:53:53;;;;;;;5.30;3.00;;;;;;;16.16;44.37;100852.17;107991;1253;71066;-72
2023/05/01 08:56:22;;;;;;;4.60;2.70;;;;;;;16.20;44.66;100847.23;107478;1253;73220;-73
2023/05/01 08:58:49;;;;;;;6.40;2.80;;;;;;;16.31;44.33;100845.64;108109;1253;59690;-71
2023/05/01 09:01:17;;;;;;;6.40;2.80;;;;;;;16.43;44.57;100844.39;107797;1253;61180;-74
2023/05/01 09:03:45;;;;;;;6.00;2.70;;;;;;;16.60;43.83;100842.56;108181;1253;74725;-73
2023/05/01 09:06:12;;;;;;;5.80;3.10;;;;;;;16.73;43.58;100842.81;108086;1253;71183;-73
2023/05/01 09:08:39;;;;;;;5.30;2.60;;;;;;;16.88;44.29;100841.05;107883;1254;72403;-72
2023/05/01 09:11:06;;;;;;;6.20;2.90;;;;;;;17.09;43.72;100843.98;107875;1252;61686;-73
2023/05/01 09:13:32;;;;;;;4.50;2.50;;;;;;;17.23;42.57;100842.68;107776;1253;60440;-73
2023/05/01 09:15:59;;;;;;;4.60;2.50;;;;;;;17.24;41.20;100837.69;107918;1252;75163;-74
2023/05/01 09:18:26;;;;;;;6.20;2.40;;;;;;;17.32;40.74;100833.56;107687;1253;70153;-72
2023/05/01 09:20:54;;;;;;;5.00;2.40;;;;;;;17.38;40.69;100831.52;108078;1253;71963;-73
2023/05/01 09:23:20;;;;;;;5.20;2.20;;;;;;;17.38;40.37;100828.19;108185;1253;59614;-74
2023/05/01 09:25:47;;;;;;;5.00;2.40;;;;;;;17.43;40.40;100826.05;107874;1254;61164;-72
2023/05/01 09:28:17;;;;;;;4.10;2.30;;;;;;;17.51;40.15;100821.88;107805;1256;73905;-75
2023/05/01 09:30:45;;;;;;;4.20;2.40;;;;;;;17.64;40.72;100821.31;107605;1253;69616;-73
2023/05/01 09:33:13;;;;;;;5.30;2.40;;;;;;;17.73;40.27;100817.52;108076;1253;70830;-72
2023/05/01 09:35:57;;;;;;;4.40;2.20;;;;;;;17.92;40.99;100811.23;107839;1253;61125;-73
2023/05/01 09:38:26;;;;;;;6.70;2.80;;;;;;;18.06;39.80;100804.54;108076;1253;61170;-74
2023/05/01 09:40:57;;;;;;;5.80;2.50;;;;;;;18.20;40.53;100803.13;108012;1252;74507;-72
2023/05/01 09:43:28;;;;;;;6.20;2.70;;;;;;;18.36;40.76;100798.94;107569;1253;70881;-73
2023/05/01 09:46:01;;;;;;;7.20;3.10;;;;;;;18.48;39.80;100796.61;108165;1253;72781;-73
2023/05/01 09:48:29;;;;;;;5.30;2.50;;;;;;;18.50;39.34;100795.10;107503;1253;61486;-72
2023/05/01 09:51:00;;;;;;;5.10;2.60;;;;;;;18.56;40.00;100790.20;108374;1253;60216;-75
2023/05/01 09:53:39;;;;;;;5.60;2.40;;;;;;;18.58;40.01;100795.16;107601;1252;74341;-72
2023/05/01 09:56:06;;;;;;;7.40;2.90;;;;;;;18.63;39.24;100790.94;108126;1254;69751;-73
2023/05/01 09:58:33;;;;;;;6.90;2.90;;;;;;;18.71;38.98;100789.46;107933;1253;73140;-74
2023/05/01 10:01:00;;;;;;;7.00;2.80;;;;;;;18.76;38.91;100789.58;107851;1252;61380;-73
2023/05/01 10:03:27;;;;;;;4.70;2.60;;;;;;;18.77;38.46;100788.54;107836;1253;61356;-73
2023/05/01 10:05:55;;;;;;;5.90;2.60;;;;;;;18.78;38.95;100789.64;107352;1253;75839;-73
2023/05/01 10:08:22;;;;;;;5.70;2.50;;;;;;;18.89;38.85;100785.09;107926;1253;71666;-72
2023/05/01 10:11:02;;;;;;;4.90;2.50;;;;;;;19.02;38.25;100782.76;107863;1253;71493;-74
2023/05/01 10:13:29;;;;;;;6.50;2.80;;;;;;;19.14;38.42;100776.33;107996;1256;59715;-73
2023/05/01 10:15:56;;;;;;;5.20;2.50;;;;;;;19.31;38.53;100777.71;108272;1253;61247;-74
2023/05/01 10:18:24;;;;;;;4.60;2.60;;;;;;;19.41;37.86;100775.26;107772;1253;74531;-73
2023/05/01 10:20:51;;;;;;;3.80;2.30;;;;;;;19.40;37.40;100772.76;108674;1253;70053;-73
2023/05/01 10:23:18;;;;;;;6.30;2.50;;;;;;;19.46;37.44;100771.20;108382;1253;71274;-73
2023/05/01 10:25:48;;;;;;;5.00;2.60;;;;;;;19.68;37.72;100764.55;108007;1253;60244;-74
2023/05/01 10:28:15;;;;;;;6.00;2.30;;;;;;;19.78;36.43;100762.17;108455;1252;61257;-73
2023/05/01 10:30:44;;;;;;;4.40;2.20;;;;;;;19.94;37.15;100759.34;108056;1257;74373;-74
2023/05/01 10:33:14;;;;;;;4.70;2.60;;;;;;;20.13;37.82;100756.70;107961;1253;70907;-74
2023/05/01 10:35:47;;;;;;;6.10;2.50;;;;;;;20.38;36.86;100751.72;107884;1254;73328;-74
2023/05/01 10:38:24;;;;;;;4.40;2.30;;;;;;;20.55;36.46;100749.55;107838;1254;61104;-72
2023/05/01 10:40:52;;;;;;;6.00;2.60;;;;;;;20.72;36.30;100748.96;107799;1257;59106;-73
2023/05/01 10:43:29;;;;;;;4.10;2.20;;;;;;;20.93;36.19;100744.05;107654;1253;74745;-74
2023/05/01 10:46:14;;;;;;;4.10;2.40;;;;;;;21.16;36.11;100740.19;107842;1253;69355;-73
2023/05/01 10:48:43;;;;;;;6.10;2.00;;;;;;;21.24;34.74;100737.42;107834;1253;71404;-73
2023/05/01 10:51:14;;;;;;;5.70;2.20;;;;;;;21.28;34.10;100727.33;108143;1257;61005;-72
2023/05/01 10:53:42;;;;;;;4.70;2.70;;;;;;;21.32;33.92;100735.16;107632;1253;61244;-73
2023/05/01 10:56:24;;;;;;;7.20;2.40;;;;;;;21.29;33.61;100730.91;108107;1254;74366;-74
2023/05/01 10:58:56;;;;;;;5.40;2.30;;;;;;;21.15;33.57;100727.98;107986;1253;71834;-73
2023/05/01 11:01:47;;;;;;;5.00;2.50;;;;;;;21.12;34.02;100724.11;108268;1256;72739;-73
2023/05/01 11:04:26;;;;;;;7.10;2.20;;;;;;;21.09;34.02;100728.48;108000;1256;61122;-73
2023/05/01 11:07:02;;;;;;;4.40;2.60;;;;;;;20.98;34.27;100725.01;107650;1254;62032;-73
2023/05/01 11:09:42;;;;;;;5.30;2.30;;;;;;;20.83;34.17;100720.00;107737;1253;73900;-75
2023/05/01 11:12:11;;;;;;;6.20;2.20;;;;;;;21.01;34.70;100711.98;107605;1253;70216;-74
2023/05/01 11:14:53;;;;;;;5.30;2.30;;;;;;;21.23;34.31;100710.74;108185;1253;70538;-74
2023/05/01 11:17:38;;;;;;;4.00;2.20;;;;;;;21.40;33.82;100706.64;107679;1253;62024;-76
2023/05/01 11:20:32;;;;;;;5.00;1.90;;;;;;;21.67;33.89;100696.54;108273;1253;62499;-74
2023/05/01 11:22:58;;;;;;;5.10;2.20;;;;;;;21.91;33.74;100699.06;107712;1256;73374;-74
2023/05/01 11:25:27;;;;;;;3.90;2.10;;;;;;;22.05;32.91;100701.56;107976;1253;72407;-73
2023/05/01 11:27:56;;;;;;;3.50;2.10;;;;;;;22.06;32.64;100695.20;107854;1254;71219;-73
2023/05/01 11:30:24;;;;;;;4.80;2.40;;;;;;;22.13;32.89;100694.21;107630;1252;61248;-74